Time;durP1;ratioP1;P1;durP2;ratioP2;P2;SDS_P1;SDS_P2;PMS_P1;PMS_P2;Temp;Humidity;BMP_temperature;BMP_pressure;BME280_temperature;BME280_humidity;BME280_pressure;Samples;Min_cycle;Max_cycle;Signal;HPM_P1;HPM_P2
2023/05/30 00:00:13;;;;;;;10.23;1.80;;;;;;;11.61;65.61;102248.63;4999791;28;20073;-71
2023/05/30 00:02:39;;;;;;;13.27;3.70;;;;;;;11.46;66.08;102245.50;5002524;28;20556;-72
2023/05/30 00:05:04;;;;;;;9.45;1.90;;;;;;;11.37;66.13;102241.88;5002881;28;20361;-72
2023/05/30 00:07:31;;;;;;;14.32;1.92;;;;;;;11.37;66.28;102252.28;5018239;28;20072;-72
2023/05/30 00:09:56;;;;;;;11.45;2.20;;;;;;;11.36;66.75;102258.44;4998083;28;21251;-71
2023/05/30 00:12:23;;;;;;;10.68;1.95;;;;;;;11.37;66.54;102256.66;5000970;28;20037;-71
2023/05/30 00:14:48;;;;;;;16.80;2.60;;;;;;;11.31;66.84;102257.97;5023225;28;20063;-72
2023/05/30 00:17:16;;;;;;;13.65;2.42;;;;;;;11.27;67.38;102259.19;5018598;28;20034;-72
2023/05/30 00:19:42;;;;;;;9.18;1.80;;;;;;;11.25;67.11;102261.06;4988424;28;20042;-71
2023/05/30 00:22:08;;;;;;;12.73;2.08;;;;;;;11.19;67.38;102261.56;5020907;28;20539;-71
2023/05/30 00:24:33;;;;;;;7.38;2.10;;;;;;;11.14;67.84;102266.31;5007933;28;20128;-71
2023/05/30 00:27:00;;;;;;;12.35;2.25;;;;;;;11.10;68.38;102271.75;5007627;28;20064;-71
2023/05/30 00:29:25;;;;;;;9.75;2.17;;;;;;;11.10;68.08;102270.94;5010081;28;20053;-71
2023/05/30 00:31:51;;;;;;;15.05;2.22;;;;;;;10.98;68.82;102277.94;4992232;28;20352;-71
2023/05/30 00:34:16;;;;;;;16.92;2.35;;;;;;;10.99;69.09;102278.75;5007944;28;20610;-71
2023/05/30 00:36:44;;;;;;;12.27;2.05;;;;;;;10.96;68.85;102282.41;5007148;28;20514;-71
2023/05/30 00:39:10;;;;;;;11.40;2.05;;;;;;;10.90;69.30;102283.72;4991745;28;20049;-72
2023/05/30 00:41:36;;;;;;;10.30;1.98;;;;;;;10.91;69.50;102281.97;5003345;28;20028;-71
2023/05/30 00:44:02;;;;;;;4.88;1.63;;;;;;;10.89;70.03;102279.47;5002758;28;20038;-71
2023/05/30 00:46:29;;;;;;;13.65;2.13;;;;;;;10.89;69.96;102278.66;5001965;28;20539;-71
2023/05/30 00:48:57;;;;;;;12.68;1.98;;;;;;;10.83;70.12;102277.38;5022492;28;20049;-73
2023/05/30 00:51:26;;;;;;;18.40;2.00;;;;;;;10.86;70.41;102276.31;5018798;28;20040;-71
2023/05/30 00:53:52;;;;;;;9.80;2.13;;;;;;;10.78;70.77;102276.91;5022666;28;20044;-72
2023/05/30 00:56:18;;;;;;;11.25;2.10;;;;;;;10.78;70.79;102274.31;5005682;28;20416;-72
2023/05/30 00:58:45;;;;;;;21.83;2.22;;;;;;;10.71;70.58;102279.16;5017877;28;20441;-71
2023/05/30 01:01:12;;;;;;;9.02;1.83;;;;;;;10.70;71.23;102279.31;5019116;28;20033;-71
2023/05/30 01:03:37;;;;;;;14.90;2.97;;;;;;;10.73;71.69;102273.03;5021228;28;20049;-71
2023/05/30 01:06:06;;;;;;;13.20;1.90;;;;;;;10.62;72.25;102276.47;5003164;28;20044;-71
2023/05/30 01:08:32;;;;;;;16.20;2.47;;;;;;;10.60;72.42;102278.34;5004457;28;20034;-71
2023/05/30 01:11:28;;;;;;;15.35;2.65;;;;;;;10.51;72.44;102278.13;5005704;28;20025;-71
2023/05/30 01:14:06;;;;;;;12.35;2.78;;;;;;;10.50;72.85;102281.66;4969594;28;20321;-72
2023/05/30 01:16:37;;;;;;;18.45;2.42;;;;;;;10.41;73.16;102278.97;5001566;28;20036;-71
2023/05/30 01:19:21;;;;;;;17.73;2.30;;;;;;;10.36;73.24;102275.91;5007834;28;20142;-71
2023/05/30 01:21:51;;;;;;;12.02;2.45;;;;;;;10.31;73.66;102274.50;4998780;28;20025;-71
2023/05/30 01:24:33;;;;;;;15.55;3.10;;;;;;;10.32;73.91;102278.75;5016684;28;20168;-71
2023/05/30 01:27:21;;;;;;;17.30;2.20;;;;;;;10.30;73.92;102287.53;5003164;28;20069;-71
2023/05/30 01:29:49;;;;;;;14.43;2.70;;;;;;;10.31;74.02;102273.66;4999964;28;20033;-73
2023/05/30 01:32:16;;;;;;;16.15;2.10;;;;;;;10.29;73.90;102278.13;5017404;28;20518;-72
2023/05/30 01:34:42;;;;;;;11.73;2.75;;;;;;;10.20;74.56;102284.00;5004783;28;20048;-71
2023/05/30 01:37:07;;;;;;;11.98;2.30;;;;;;;10.20;74.68;102282.22;4999743;28;20380;-71
2023/05/30 01:39:33;;;;;;;11.70;2.40;;;;;;;10.08;75.25;102280.59;5003642;28;20107;-73
2023/05/30 01:42:08;;;;;;;10.63;2.47;;;;;;;10.07;75.57;102284.94;5004070;28;20038;-71
2023/05/30 01:44:45;;;;;;;13.98;2.92;;;;;;;9.99;75.79;102283.88;5001368;28;20095;-71
2023/05/30 01:47:43;;;;;;;10.80;2.08;;;;;;;9.97;76.12;102284.00;5002961;28;20396;-71
2023/05/30 01:50:15;;;;;;;15.70;2.58;;;;;;;9.97;76.18;102285.75;4997586;28;20404;-73
2023/05/30 01:52:46;;;;;;;8.75;1.83;;;;;;;9.93;76.50;102292.94;5004978;28;20040;-72
2023/05/30 01:55:13;;;;;;;13.25;2.13;;;;;;;9.97;76.42;102290.94;4986871;28;20045;-71
2023/05/30 01:57:46;;;;;;;10.52;2.30;;;;;;;9.90;77.12;102293.97;5001893;28;20376;-72
2023/05/30 02:00:14;;;;;;;21.30;3.38;;;;;;;9.87;77.12;102294.22;5003190;28;20033;-72
2023/05/30 02:02:43;;;;;;;16.05;2.70;;;;;;;9.84;77.56;102286.66;4994027;28;20025;-72
2023/05/30 02:05:09;;;;;;;14.70;3.30;;;;;;;9.87;77.82;102290.78;5001058;28;20508;-73
2023/05/30 02:07:34;;;;;;;19.05;2.47;;;;;;;9.73;78.20;102286.66;5021628;28;20033;-72
2023/05/30 02:10:00;;;;;;;19.00;3.05;;;;;;;9.73;78.73;102294.41;5005198;28;20518;-72
2023/05/30 02:12:25;;;;;;;13.25;2.67;;;;;;;9.67;79.04;102289.69;4990207;28;20045;-71
2023/05/30 02:14:54;;;;;;;16.08;2.10;;;;;;;9.71;78.97;102296.28;4990663;28;20514;-71
2023/05/30 02:17:21;;;;;;;17.65;2.92;;;;;;;9.65;79.75;102295.00;5020266;28;20021;-71
2023/05/30 02:19:48;;;;;;;22.13;3.25;;;;;;;9.66;79.71;102290.63;5004939;28;20503;-72
2023/05/30 02:22:13;;;;;;;20.45;2.22;;;;;;;9.60;80.05;102291.09;4999976;28;20025;-73
2023/05/30 02:24:39;;;;;;;12.05;2.10;;;;;;;9.54;80.66;102298.34;4989075;28;20122;-72
2023/05/30 02:27:05;;;;;;;17.00;3.22;;;;;;;9.52;80.29;102300.25;4983001;28;20503;-72
2023/05/30 02:29:31;;;;;;;19.30;2.55;;;;;;;9.48;80.77;102295.41;5001999;28;20222;-72
2023/05/30 02:31:57;;;;;;;15.57;2.13;;;;;;;9.42;81.29;102294.09;4998708;28;20041;-71
2023/05/30 02:34:22;;;;;;;21.45;4.38;;;;;;;9.45;81.19;102295.63;5015614;28;20045;-71
2023/05/30 02:36:48;;;;;;;15.25;3.35;;;;;;;9.38;81.83;102290.09;5000792;28;20044;-71
2023/05/30 02:39:13;;;;;;;12.80;2.38;;;;;;;9.34;81.96;102293.81;5002073;28;20030;-71
2023/05/30 02:41:41;;;;;;;16.92;2.58;;;;;;;9.34;82.54;102301.56;4997587;28;20026;-71
2023/05/30 02:44:07;;;;;;;23.63;2.78;;;;;;;9.29;82.72;102298.50;5017717;28;20511;-72
2023/05/30 02:46:34;;;;;;;11.93;3.05;;;;;;;9.23;83.04;102294.59;5001381;28;20053;-71
2023/05/30 02:49:01;;;;;;;15.35;3.53;;;;;;;9.28;83.18;102302.03;4985844;28;20053;-71
2023/05/30 02:51:26;;;;;;;12.52;2.70;;;;;;;9.09;83.81;102295.56;5002091;28;20413;-71
2023/05/30 02:53:53;;;;;;;23.15;3.20;;;;;;;9.04;84.38;102297.69;5000039;28;20033;-72
2023/05/30 02:56:27;;;;;;;17.37;3.07;;;;;;;9.11;84.50;102296.28;5000633;28;20273;-71
2023/05/30 02:58:59;;;;;;;19.73;3.00;;;;;;;9.10;84.50;102305.00;5002116;28;20522;-72
2023/05/30 03:01:42;;;;;;;15.15;2.55;;;;;;;9.05;84.91;102307.09;4988608;28;20507;-72
2023/05/30 03:04:10;;;;;;;14.10;2.90;;;;;;;8.99;85.17;102314.47;4985582;28;20053;-72
2023/05/30 03:06:41;;;;;;;15.27;2.78;;;;;;;8.92;85.95;102316.66;5005994;28;20041;-72
2023/05/30 03:09:18;;;;;;;20.75;3.72;;;;;;;8.95;85.83;102311.28;4998827;28;20068;-74
2023/05/30 03:11:44;;;;;;;20.33;3.42;;;;;;;8.90;86.42;102311.59;5001711;28;20113;-72
2023/05/30 03:14:10;;;;;;;17.95;4.30;;;;;;;8.92;86.22;102314.06;5002179;28;20049;-72
2023/05/30 03:16:36;;;;;;;13.63;3.13;;;;;;;8.90;86.42;102309.00;4985753;28;20026;-72
2023/05/30 03:19:03;;;;;;;18.83;2.75;;;;;;;8.90;86.76;102305.59;5002189;28;20053;-72
2023/05/30 03:21:30;;;;;;;18.55;3.92;;;;;;;8.86;87.16;102307.56;4999616;28;20030;-72
2023/05/30 03:23:57;;;;;;;21.58;3.25;;;;;;;8.87;87.22;102305.78;5001594;28;20068;-72
2023/05/30 03:26:27;;;;;;;12.98;2.83;;;;;;;8.86;87.28;102311.91;5002063;28;20056;-72
2023/05/30 03:28:53;;;;;;;15.02;2.85;;;;;;;8.77;87.61;102303.84;4986388;28;20041;-72
2023/05/30 03:31:22;;;;;;;18.98;3.00;;;;;;;8.75;88.01;102313.47;5000172;28;20123;-72
2023/05/30 03:33:48;;;;;;;23.73;3.22;;;;;;;8.76;88.24;102314.34;5004082;28;20033;-72
2023/05/30 03:36:16;;;;;;;22.00;5.88;;;;;;;8.68;88.79;102309.69;4997482;28;20129;-72
2023/05/30 03:38:42;;;;;;;21.38;3.88;;;;;;;8.73;88.75;102310.19;4985177;28;20121;-72
2023/05/30 03:41:08;;;;;;;15.13;3.88;;;;;;;8.68;89.21;102314.88;4987083;28;20022;-72
2023/05/30 03:43:33;;;;;;;13.85;2.80;;;;;;;8.74;89.40;102311.84;5001552;28;20041;-72
2023/05/30 03:45:59;;;;;;;13.60;2.78;;;;;;;8.75;89.50;102315.25;5015901;28;20037;-72
2023/05/30 03:48:24;;;;;;;15.35;2.70;;;;;;;8.81;89.44;102309.63;4999352;28;20046;-72
2023/05/30 03:50:50;;;;;;;24.45;4.10;;;;;;;8.84;89.40;102314.59;5004903;28;20037;-73
2023/05/30 03:53:16;;;;;;;23.33;4.28;;;;;;;8.73;89.72;102317.13;5016503;28;20049;-71
2023/05/30 03:55:41;;;;;;;19.67;2.88;;;;;;;8.71;90.11;102314.63;5000343;28;20111;-72
2023/05/30 03:58:06;;;;;;;22.38;3.60;;;;;;;8.72;90.53;102323.22;5005281;28;20487;-72
2023/05/30 04:00:32;;;;;;;31.27;3.67;;;;;;;8.75;90.53;102320.41;5019482;28;20029;-72
2023/05/30 04:03:00;;;;;;;17.70;3.30;;;;;;;8.77;90.31;102314.19;5003556;28;20021;-74
2023/05/30 04:05:26;;;;;;;20.08;3.08;;;;;;;8.71;90.56;102324.97;4987069;28;20030;-72
2023/05/30 04:07:53;;;;;;;15.05;2.90;;;;;;;8.77;90.99;102324.53;4990102;28;20106;-71
2023/05/30 04:10:18;;;;;;;21.55;3.50;;;;;;;8.76;90.85;102328.06;5005184;28;20234;-72
2023/05/30 04:12:43;;;;;;;20.60;3.47;;;;;;;8.76;91.09;102322.91;5006491;28;20033;-72
2023/05/30 04:15:10;;;;;;;14.32;3.50;;;;;;;8.73;91.35;102330.88;5001508;28;20072;-72
2023/05/30 04:17:36;;;;;;;27.80;3.88;;;;;;;8.72;91.31;102321.47;5005586;28;20022;-72
2023/05/30 04:20:04;;;;;;;22.33;3.47;;;;;;;8.76;91.61;102320.31;4999121;28;20619;-72
2023/05/30 04:22:32;;;;;;;18.67;3.42;;;;;;;8.79;91.60;102327.03;5000819;28;20083;-74
2023/05/30 04:24:58;;;;;;;20.67;3.17;;;;;;;8.84;91.56;102326.72;4998701;28;20050;-74
2023/05/30 04:27:24;;;;;;;25.33;3.72;;;;;;;8.83;91.74;102331.06;5002834;28;20442;-72
2023/05/30 04:29:50;;;;;;;10.82;3.30;;;;;;;8.84;92.01;102339.66;4999736;28;20158;-73
2023/05/30 04:32:16;;;;;;;20.95;3.05;;;;;;;8.97;92.09;102335.28;5001933;28;20041;-71
2023/05/30 04:34:43;;;;;;;24.45;4.18;;;;;;;8.98;90.95;102331.72;4999105;28;20419;-71
2023/05/30 04:37:10;;;;;;;24.45;4.20;;;;;;;8.94;91.24;102336.31;4990021;28;20153;-73
2023/05/30 04:39:37;;;;;;;20.42;3.88;;;;;;;9.08;91.06;102345.69;5019367;28;20454;-74
2023/05/30 04:42:05;;;;;;;21.23;4.32;;;;;;;8.98;91.70;102343.84;5002541;28;20040;-71
2023/05/30 04:44:38;;;;;;;20.48;4.47;;;;;;;9.03;91.60;102345.19;5018250;28;20037;-72
2023/05/30 04:47:08;;;;;;;15.33;3.87;;;;;;;9.08;91.53;102345.69;5000819;28;20045;-72
2023/05/30 04:49:34;;;;;;;22.48;4.38;;;;;;;9.17;91.11;102346.78;5007405;28;20045;-72
2023/05/30 04:52:00;;;;;;;23.65;4.57;;;;;;;9.17;90.79;102341.59;5018597;28;20056;-73
2023/05/30 04:54:27;;;;;;;20.02;4.90;;;;;;;9.24;90.61;102339.41;4999628;28;20120;-73
2023/05/30 04:56:52;;;;;;;22.80;5.10;;;;;;;9.35;90.75;102336.88;5001680;28;20033;-71
2023/05/30 04:59:18;;;;;;;28.48;5.32;;;;;;;9.39;90.39;102342.69;4985763;28;20447;-72
2023/05/30 05:01:44;;;;;;;24.98;5.07;;;;;;;9.56;89.41;102339.69;5000475;28;20026;-71
2023/05/30 05:04:10;;;;;;;23.63;4.60;;;;;;;9.59;89.36;102347.25;4987931;28;20075;-72
2023/05/30 05:06:36;;;;;;;20.63;5.03;;;;;;;9.81;88.41;102343.88;4989495;28;20033;-72
2023/05/30 05:09:01;;;;;;;18.88;4.45;;;;;;;9.84;88.12;102345.44;5004785;28;20041;-71
2023/05/30 05:11:27;;;;;;;19.38;5.82;;;;;;;9.92;86.98;102341.31;5017953;28;20504;-72
2023/05/30 05:13:52;;;;;;;20.73;5.30;;;;;;;9.98;85.75;102342.63;5002296;28;20048;-72
2023/05/30 05:16:18;;;;;;;25.95;5.40;;;;;;;9.94;86.63;102342.06;5020556;28;20037;-71
2023/05/30 05:18:43;;;;;;;19.60;5.60;;;;;;;10.06;85.39;102339.50;5016148;28;20124;-72
2023/05/30 05:21:10;;;;;;;25.55;6.22;;;;;;;10.04;86.10;102337.00;5019552;28;20487;-71
2023/05/30 05:23:35;;;;;;;28.00;6.80;;;;;;;10.03;84.44;102340.53;5016230;28;20044;-72
2023/05/30 05:26:01;;;;;;;25.13;6.75;;;;;;;10.03;85.27;102344.91;5007237;28;20029;-72
2023/05/30 05:28:26;;;;;;;23.08;7.50;;;;;;;10.14;85.23;102335.38;4999501;28;20053;-71
2023/05/30 05:30:52;;;;;;;21.60;7.28;;;;;;;10.39;84.07;102343.09;5002146;28;20044;-72
2023/05/30 05:33:18;;;;;;;24.92;7.72;;;;;;;10.38;83.56;102346.59;4996952;28;20053;-71
2023/05/30 05:35:46;;;;;;;25.75;6.85;;;;;;;10.48;82.30;102347.56;4999360;28;20034;-72
2023/05/30 05:38:12;;;;;;;24.80;6.68;;;;;;;10.58;82.04;102343.31;5001543;28;20056;-71
2023/05/30 05:40:38;;;;;;;19.63;6.65;;;;;;;10.65;80.91;102349.69;4990024;28;20029;-72
2023/05/30 05:43:03;;;;;;;21.65;6.40;;;;;;;10.64;81.11;102348.06;5001144;28;20120;-72
2023/05/30 05:45:29;;;;;;;22.67;6.75;;;;;;;10.65;80.74;102349.69;5014075;28;20702;-72
2023/05/30 05:47:54;;;;;;;20.98;6.82;;;;;;;10.77;80.38;102354.88;5001966;28;20037;-72
2023/05/30 05:50:20;;;;;;;21.92;8.15;;;;;;;10.84;80.55;102349.06;5019570;28;20091;-72
2023/05/30 05:52:45;;;;;;;30.83;7.68;;;;;;;10.94;79.87;102351.78;5003544;28;20034;-71
2023/05/30 05:55:11;;;;;;;22.10;6.75;;;;;;;11.09;78.99;102353.19;4998662;28;20045;-72
2023/05/30 05:57:36;;;;;;;28.02;7.15;;;;;;;11.23;78.77;102346.88;5002731;28;20034;-72
2023/05/30 06:00:05;;;;;;;29.92;8.13;;;;;;;11.39;77.57;102354.25;5019648;28;20414;-72
2023/05/30 06:02:37;;;;;;;22.20;8.27;;;;;;;11.59;77.46;102359.63;5019769;28;20037;-72
2023/05/30 06:05:03;;;;;;;24.65;7.55;;;;;;;11.60;76.71;102348.28;4998260;28;20671;-72
2023/05/30 06:07:29;;;;;;;41.05;9.30;;;;;;;11.89;76.23;102351.09;5000458;28;20037;-72
2023/05/30 06:09:54;;;;;;;25.08;8.40;;;;;;;12.03;74.60;102352.56;5001014;28;20042;-71
2023/05/30 06:12:20;;;;;;;24.60;8.43;;;;;;;12.12;73.51;102362.22;4999453;28;20037;-72
2023/05/30 06:14:45;;;;;;;24.73;8.60;;;;;;;12.04;74.62;102356.84;5020918;28;20053;-72
2023/05/30 06:17:11;;;;;;;30.67;9.38;;;;;;;12.20;73.82;102358.97;5003240;28;20033;-74
2023/05/30 06:19:36;;;;;;;19.70;8.48;;;;;;;12.20;72.90;102358.97;5003091;28;20052;-72
2023/05/30 06:22:01;;;;;;;26.35;8.13;;;;;;;12.43;72.44;102357.88;5016832;28;20037;-72
2023/05/30 06:24:27;;;;;;;23.50;9.50;;;;;;;12.70;71.73;102360.84;4997410;28;20815;-72
2023/05/30 06:26:53;;;;;;;25.67;9.45;;;;;;;12.93;70.63;102361.44;5021460;28;20042;-72
2023/05/30 06:29:18;;;;;;;28.77;9.90;;;;;;;12.93;69.38;102362.25;5019662;28;20041;-71
2023/05/30 06:31:44;;;;;;;22.05;9.85;;;;;;;13.21;69.08;102358.06;5017419;28;20041;-72
2023/05/30 06:34:09;;;;;;;22.63;7.25;;;;;;;13.29;66.38;102360.00;5016869;28;20042;-72
2023/05/30 06:36:35;;;;;;;24.33;7.65;;;;;;;13.40;67.02;102365.09;5018982;28;20030;-71
2023/05/30 06:39:01;;;;;;;25.42;7.47;;;;;;;13.75;66.12;102368.94;5017696;28;20115;-71
2023/05/30 06:41:26;;;;;;;30.25;10.60;;;;;;;13.84;64.90;102367.28;5001598;28;20057;-72
2023/05/30 06:43:52;;;;;;;29.77;9.02;;;;;;;14.05;64.57;102361.88;5015039;28;20527;-72
2023/05/30 06:46:17;;;;;;;19.27;7.38;;;;;;;14.17;63.97;102373.00;5020053;28;20038;-72
2023/05/30 06:48:43;;;;;;;21.77;6.80;;;;;;;14.02;62.83;102362.19;5000056;28;20188;-72
2023/05/30 06:51:08;;;;;;;18.92;6.75;;;;;;;14.21;62.26;102362.13;5001073;28;20040;-72
2023/05/30 06:53:34;;;;;;;24.15;7.65;;;;;;;14.71;61.22;102366.22;5001936;28;20056;-72
2023/05/30 06:55:59;;;;;;;18.20;5.50;;;;;;;14.77;59.80;102367.44;5002879;28;20021;-72
2023/05/30 06:58:25;;;;;;;21.45;4.88;;;;;;;14.76;59.61;102368.38;5000489;28;20057;-73
2023/05/30 07:00:51;;;;;;;24.13;6.93;;;;;;;14.79;59.08;102370.72;5016825;28;20033;-72
2023/05/30 07:03:16;;;;;;;15.63;5.93;;;;;;;14.23;60.13;102361.97;5021085;28;20037;-72
2023/05/30 07:05:42;;;;;;;16.17;5.85;;;;;;;15.03;58.33;102364.09;5004072;28;20116;-72
2023/05/30 07:08:07;;;;;;;20.80;7.13;;;;;;;15.35;58.37;102367.06;5018476;28;20052;-72
2023/05/30 07:10:34;;;;;;;17.02;6.20;;;;;;;15.30;57.05;102369.28;5016554;28;20033;-72
2023/05/30 07:13:00;;;;;;;19.85;5.45;;;;;;;15.47;57.57;102366.81;5016882;28;20131;-71
2023/05/30 07:15:27;;;;;;;16.23;6.53;;;;;;;16.15;56.28;102360.97;4997446;28;20045;-72
2023/05/30 07:17:52;;;;;;;20.55;6.45;;;;;;;16.23;55.47;102360.19;5001691;28;20037;-72
2023/05/30 07:20:22;;;;;;;22.23;6.40;;;;;;;16.41;54.77;102358.31;5002180;28;20037;-72
2023/05/30 07:22:49;;;;;;;19.40;7.00;;;;;;;16.80;54.09;102349.13;5003490;28;20048;-72
2023/05/30 07:25:14;;;;;;;21.42;6.75;;;;;;;17.05;53.16;102355.28;4997901;28;20133;-72
2023/05/30 07:27:40;;;;;;;22.92;7.32;;;;;;;17.46;52.25;102352.69;4999702;28;20102;-72
2023/05/30 07:30:05;;;;;;;21.45;6.72;;;;;;;17.43;52.27;102358.28;4997025;28;20056;-72
2023/05/30 07:32:31;;;;;;;31.05;7.07;;;;;;;17.37;51.21;102365.00;5005485;28;20044;-72
2023/05/30 07:34:56;;;;;;;19.67;7.90;;;;;;;17.06;52.18;102364.78;5016264;28;20037;-72
2023/05/30 07:37:22;;;;;;;18.48;6.55;;;;;;;17.18;51.93;102362.66;5001071;28;20048;-71
2023/05/30 07:39:47;;;;;;;22.58;7.13;;;;;;;17.02;52.50;102361.66;5004039;28;20132;-72
2023/05/30 07:42:13;;;;;;;21.92;7.57;;;;;;;16.89;52.71;102363.91;5020521;28;20036;-71
2023/05/30 07:44:38;;;;;;;21.85;6.93;;;;;;;17.04;52.21;102362.31;4985786;28;20045;-71
2023/05/30 07:47:04;;;;;;;16.50;6.70;;;;;;;17.54;51.19;102372.84;5016138;28;20025;-72
2023/05/30 07:49:30;;;;;;;30.77;7.28;;;;;;;17.32;49.86;102370.69;5021454;28;20041;-72
2023/05/30 07:51:55;;;;;;;28.00;11.45;;;;;;;17.54;49.29;102376.31;4995822;28;20060;-72
2023/05/30 07:54:21;;;;;;;20.95;8.13;;;;;;;17.47;50.03;102372.69;5020172;28;20049;-71
2023/05/30 07:56:46;;;;;;;15.43;7.35;;;;;;;17.76;49.53;102368.75;5006311;28;20501;-71
2023/05/30 07:59:12;;;;;;;30.52;9.02;;;;;;;17.32;50.13;102373.31;5018406;28;20451;-71
2023/05/30 08:01:37;;;;;;;16.25;7.75;;;;;;;17.99;49.90;102372.34;5018792;28;20045;-71
2023/05/30 08:04:03;;;;;;;17.88;7.75;;;;;;;18.25;49.06;102364.25;5017038;28;20061;-71
2023/05/30 08:06:28;;;;;;;17.92;7.65;;;;;;;18.69;48.43;102365.56;5016880;28;20120;-71
2023/05/30 08:08:53;;;;;;;25.00;8.38;;;;;;;18.27;48.92;102367.53;5018444;28;20446;-71
2023/05/30 08:11:19;;;;;;;18.35;7.20;;;;;;;18.06;49.65;102362.84;4997224;28;20496;-71
2023/05/30 08:13:44;;;;;;;22.30;8.55;;;;;;;18.62;49.69;102364.59;5023152;28;20052;-71
2023/05/30 08:16:11;;;;;;;12.60;6.97;;;;;;;19.12;48.29;102355.47;5021055;28;20397;-71
2023/05/30 08:18:37;;;;;;;17.05;7.35;;;;;;;19.06;45.83;102354.38;5023272;28;20117;-71
2023/05/30 08:21:03;;;;;;;21.10;7.93;;;;;;;19.13;46.49;102356.28;5023911;28;20048;-71
2023/05/30 08:23:29;;;;;;;23.88;9.15;;;;;;;18.81;46.94;102361.56;5005833;28;20131;-71
2023/05/30 08:25:56;;;;;;;15.45;7.68;;;;;;;19.20;46.42;102352.78;5007699;28;20042;-71
2023/05/30 08:28:21;;;;;;;25.52;8.45;;;;;;;19.09;46.11;102355.81;5002168;28;20053;-70
2023/05/30 08:30:50;;;;;;;18.77;8.98;;;;;;;19.21;46.12;102348.31;5026064;28;20419;-71
2023/05/30 08:33:19;;;;;;;21.88;9.18;;;;;;;18.75;46.88;102350.91;5003712;28;20041;-71
2023/05/30 08:35:45;;;;;;;22.05;8.93;;;;;;;18.68;47.49;102354.22;5006163;28;20056;-72
2023/05/30 08:38:12;;;;;;;21.50;8.93;;;;;;;18.24;48.05;102343.41;5003995;28;20049;-71
2023/05/30 08:40:45;;;;;;;20.13;8.48;;;;;;;18.07;49.35;102353.97;5015240;28;20105;-71
2023/05/30 08:43:11;;;;;;;20.60;9.95;;;;;;;18.34;48.39;102351.91;5023944;28;20178;-71
2023/05/30 08:45:38;;;;;;;19.35;7.95;;;;;;;18.79;47.27;102360.88;5006275;28;20175;-71
2023/05/30 08:48:05;;;;;;;21.95;7.68;;;;;;;19.02;46.77;102352.25;5021321;28;20506;-71
2023/05/30 08:50:33;;;;;;;14.48;7.63;;;;;;;19.01;45.92;102353.25;5020103;28;20052;-71
2023/05/30 08:53:07;;;;;;;25.75;7.10;;;;;;;18.89;46.14;102350.19;5003023;28;20293;-71
2023/05/30 08:55:39;;;;;;;19.30;6.75;;;;;;;19.03;45.85;102356.53;5019496;28;20069;-71
2023/05/30 08:58:19;;;;;;;16.20;6.00;;;;;;;19.00;46.80;102348.97;5024923;28;20447;-71
2023/05/30 09:00:44;;;;;;;15.45;6.70;;;;;;;18.64;47.20;102352.09;5005931;28;20037;-71
2023/05/30 09:03:13;;;;;;;26.85;6.47;;;;;;;19.25;45.70;102342.56;5023229;28;20048;-72
2023/05/30 09:05:40;;;;;;;18.85;6.07;;;;;;;19.59;44.45;102337.81;5002468;28;20025;-72
2023/05/30 09:08:08;;;;;;;20.55;6.22;;;;;;;19.53;44.88;102333.28;5025621;28;20091;-72
2023/05/30 09:10:35;;;;;;;14.68;5.10;;;;;;;19.45;44.32;102327.09;5021664;28;20331;-71
2023/05/30 09:13:00;;;;;;;15.65;5.10;;;;;;;19.68;43.88;102331.50;5006394;28;20033;-71
2023/05/30 09:15:26;;;;;;;12.27;5.00;;;;;;;19.74;43.26;102322.94;5021182;28;20403;-71
2023/05/30 09:17:51;;;;;;;16.35;6.20;;;;;;;19.45;43.61;102321.84;5013327;28;20194;-72
2023/05/30 09:20:17;;;;;;;13.55;4.97;;;;;;;19.10;45.20;102327.72;5003703;28;20045;-72
2023/05/30 09:22:47;;;;;;;19.90;5.60;;;;;;;19.59;43.04;102327.28;5020801;28;20104;-72
2023/05/30 09:25:15;;;;;;;24.60;6.05;;;;;;;19.53;43.14;102328.81;5018545;28;20259;-72
2023/05/30 09:27:46;;;;;;;13.52;4.70;;;;;;;19.62;43.42;102319.88;5015967;28;20038;-73
2023/05/30 09:30:12;;;;;;;11.80;5.25;;;;;;;19.30;44.59;102328.88;5018314;28;20061;-72
2023/05/30 09:32:39;;;;;;;17.63;5.97;;;;;;;19.34;44.02;102329.34;5007409;28;20036;-72
2023/05/30 09:35:11;;;;;;;14.68;5.68;;;;;;;19.25;44.00;102318.91;4999774;28;20045;-72
2023/05/30 09:37:38;;;;;;;18.05;6.97;;;;;;;19.37;42.95;102326.38;5000971;28;20489;-71
2023/05/30 09:40:13;;;;;;;15.80;4.90;;;;;;;19.60;42.47;102321.88;5000779;28;20507;-71
2023/05/30 09:42:48;;;;;;;15.38;4.60;;;;;;;19.93;42.88;102324.22;5016450;28;20025;-72
2023/05/30 09:45:15;;;;;;;25.95;9.20;;;;;;;19.63;42.21;102318.88;4999431;28;20080;-72
2023/05/30 09:47:45;;;;;;;13.77;5.03;;;;;;;20.08;42.75;102316.31;5008146;28;20144;-71
2023/05/30 09:50:13;;;;;;;11.70;4.88;;;;;;;19.99;41.86;102320.03;5017145;28;20053;-71
2023/05/30 09:52:40;;;;;;;12.77;3.83;;;;;;;20.19;41.75;102307.09;5002634;28;20615;-71
2023/05/30 09:55:08;;;;;;;16.02;3.97;;;;;;;20.43;41.76;102308.63;4996059;28;20049;-72
2023/05/30 09:57:35;;;;;;;20.15;5.35;;;;;;;20.29;41.92;102302.38;5004402;28;20080;-71
2023/05/30 10:00:11;;;;;;;13.80;4.65;;;;;;;20.49;42.13;102310.50;5010887;28;20052;-71
2023/05/30 10:02:41;;;;;;;14.82;4.60;;;;;;;20.11;41.86;102294.06;4997238;28;20029;-71
2023/05/30 10:05:18;;;;;;;14.52;4.15;;;;;;;20.23;41.89;102309.22;4998303;28;20052;-71
2023/05/30 10:07:44;;;;;;;11.07;3.88;;;;;;;20.31;41.59;102295.13;4999177;28;20025;-71
2023/05/30 10:10:13;;;;;;;13.02;3.78;;;;;;;20.66;42.91;102307.69;5020161;28;20699;-72
2023/05/30 10:12:40;;;;;;;14.80;4.18;;;;;;;20.55;41.60;102290.50;4998240;28;20463;-71
2023/05/30 10:15:08;;;;;;;17.50;4.72;;;;;;;20.40;42.38;102296.66;5015735;28;20514;-71
2023/05/30 10:17:36;;;;;;;7.55;2.95;;;;;;;20.22;42.38;102286.50;5003112;28;20452;-72
2023/05/30 10:20:06;;;;;;;13.90;4.30;;;;;;;20.28;42.67;102295.47;5013406;28;20051;-71
2023/05/30 10:22:40;;;;;;;13.45;5.00;;;;;;;20.49;42.28;102294.69;5015992;28;20072;-71
2023/05/30 10:25:08;;;;;;;10.85;3.55;;;;;;;20.66;42.53;102289.25;5015979;28;20064;-71
2023/05/30 10:27:39;;;;;;;9.15;4.15;;;;;;;20.47;42.60;102293.25;5015631;28;20041;-71
2023/05/30 10:30:07;;;;;;;16.42;4.38;;;;;;;20.40;42.05;102296.66;5013773;28;20056;-72
2023/05/30 10:32:36;;;;;;;14.05;4.25;;;;;;;20.47;42.42;102288.00;5017526;28;22137;-71
2023/05/30 10:35:15;;;;;;;12.48;3.30;;;;;;;20.41;43.87;102284.28;4995978;28;20618;-71
2023/05/30 10:37:41;;;;;;;12.55;4.20;;;;;;;20.63;43.19;102273.81;5001247;28;20479;-71
2023/05/30 10:40:35;;;;;;;14.30;5.20;;;;;;;20.83;41.59;102277.44;5013253;28;20049;-71
2023/05/30 10:43:10;;;;;;;14.55;3.97;;;;;;;20.76;41.51;102277.41;4999072;28;20042;-72
2023/05/30 10:45:44;;;;;;;14.30;4.03;;;;;;;20.90;41.43;102280.16;5015691;28;20091;-71
2023/05/30 10:48:18;;;;;;;15.52;3.50;;;;;;;21.06;41.56;102277.25;5018465;28;20044;-71
2023/05/30 10:50:48;;;;;;;18.35;4.38;;;;;;;20.89;40.33;102278.50;5015961;28;20276;-71
2023/05/30 10:53:17;;;;;;;14.40;3.60;;;;;;;20.99;40.40;102273.75;5015660;28;20072;-71
2023/05/30 10:55:48;;;;;;;14.07;3.92;;;;;;;20.98;40.27;102278.22;5013546;28;20037;-71
2023/05/30 10:58:36;;;;;;;9.52;3.35;;;;;;;21.26;41.00;102276.59;4997545;28;20929;-71
2023/05/30 11:01:27;;;;;;;18.58;4.45;;;;;;;21.26;41.68;102281.88;4999024;28;20129;-71
2023/05/30 11:03:57;;;;;;;9.57;3.40;;;;;;;21.32;39.80;102276.66;5015357;28;20153;-72
2023/05/30 11:06:27;;;;;;;12.45;3.95;;;;;;;21.20;41.37;102272.91;5013847;28;20125;-71
2023/05/30 11:08:53;;;;;;;16.52;4.22;;;;;;;20.87;40.52;102277.88;4999952;28;20041;-71
2023/05/30 11:11:19;;;;;;;14.63;4.50;;;;;;;20.74;41.02;102271.50;5003532;28;20044;-72
2023/05/30 11:13:50;;;;;;;13.30;4.75;;;;;;;20.45;41.17;102274.19;5002901;28;20041;-72
2023/05/30 11:16:25;;;;;;;13.98;4.05;;;;;;;20.60;40.31;102259.19;5019914;28;20036;-71
2023/05/30 11:18:54;;;;;;;15.73;5.18;;;;;;;19.93;42.48;102271.56;4984710;28;20526;-71
2023/05/30 11:21:59;;;;;;;14.73;5.80;;;;;;;19.81;42.25;102254.59;5019889;28;20122;-71